createdAt,value
2023-06-08T00:00:41.045Z,0.30
2023-06-08T00:06:58.930Z,0.43
2023-06-08T00:09:25.352Z,0.30
2023-06-08T00:11:54.005Z,0.20
2023-06-08T00:14:20.663Z,0.40
2023-06-08T00:16:49.145Z,0.32
2023-06-08T00:19:16.403Z,0.32
2023-06-08T00:21:44.095Z,0.55
2023-06-08T00:24:11.175Z,0.40
2023-06-08T00:26:37.903Z,0.20
2023-06-08T00:29:04.434Z,0.28
2023-06-08T00:31:31.005Z,0.47
2023-06-08T00:33:57.420Z,0.50
2023-06-08T00:36:23.801Z,0.08
2023-06-08T00:38:50.398Z,0.50
2023-06-08T00:41:16.798Z,0.32
2023-06-08T00:43:46.654Z,0.47
2023-06-08T00:46:16.005Z,0.20
2023-06-08T00:48:43.061Z,0.15
2023-06-08T00:51:10.909Z,0.43
2023-06-08T00:53:38.173Z,0.77
2023-06-08T00:56:06.979Z,0.55
2023-06-08T00:58:34.602Z,0.85
2023-06-08T01:01:02.378Z,0.47
2023-06-08T01:03:34.283Z,0.03
2023-06-08T01:06:09.064Z,0.50
2023-06-08T01:08:43.140Z,0.22
2023-06-08T01:11:19.745Z,0.38
2023-06-08T01:14:06.236Z,0.32
2023-06-08T01:16:38.698Z,0.40
2023-06-08T01:19:09.773Z,0.75
2023-06-08T01:21:48.762Z,0.15
2023-06-08T01:24:21.108Z,0.30
2023-06-08T01:26:51.408Z,0.13
2023-06-08T01:29:26.311Z,0.43
2023-06-08T01:31:52.781Z,0.20
2023-06-08T01:34:20.412Z,0.30
2023-06-08T01:36:58.956Z,0.20
2023-06-08T01:39:57.966Z,0.22
2023-06-08T01:42:27.038Z,0.10
2023-06-08T01:44:59.835Z,0.50
2023-06-08T01:47:36.724Z,0.25
2023-06-08T01:50:07.004Z,0.40
2023-06-08T01:52:33.866Z,0.40
2023-06-08T01:55:00.659Z,0.80
2023-06-08T01:57:27.134Z,0.60
2023-06-08T01:59:53.597Z,0.13
2023-06-08T02:02:20.004Z,0.00
2023-06-08T02:04:46.481Z,0.32
2023-06-08T02:07:12.847Z,0.30
2023-06-08T02:09:39.223Z,0.32
2023-06-08T02:12:09.197Z,0.47
2023-06-08T02:14:36.497Z,0.28
2023-06-08T02:17:04.498Z,0.03
2023-06-08T02:19:34.360Z,0.50
2023-06-08T02:22:00.791Z,0.40
2023-06-08T02:24:27.618Z,0.50
2023-06-08T02:26:54.026Z,0.28
2023-06-08T02:29:20.431Z,0.30
2023-06-08T02:31:46.886Z,0.30
2023-06-08T02:34:13.332Z,0.08
2023-06-08T02:36:40.961Z,0.00
2023-06-08T02:39:07.354Z,0.10
2023-06-08T02:41:33.680Z,0.30
2023-06-08T02:44:00.024Z,0.20
2023-06-08T02:46:26.522Z,0.20
2023-06-08T02:48:52.903Z,0.15
2023-06-08T02:51:20.374Z,0.20
2023-06-08T02:53:46.903Z,0.10
2023-06-08T02:56:13.849Z,0.25
2023-06-08T02:58:42.735Z,0.25
2023-06-08T03:01:21.359Z,0.10
2023-06-08T03:03:50.336Z,0.03
2023-06-08T03:06:19.591Z,0.30
2023-06-08T03:08:47.929Z,0.17
2023-06-08T03:11:15.501Z,0.30
2023-06-08T03:13:41.835Z,0.20
2023-06-08T03:16:08.378Z,0.40
2023-06-08T03:18:36.758Z,0.28
2023-06-08T03:21:04.078Z,0.20
2023-06-08T03:23:31.566Z,0.22
2023-06-08T03:25:58.101Z,0.30
2023-06-08T03:28:24.649Z,0.10
2023-06-08T03:30:51.686Z,0.17
2023-06-08T03:33:18.068Z,0.20
2023-06-08T03:35:44.495Z,0.00
2023-06-08T03:38:10.962Z,0.25
2023-06-08T03:40:37.355Z,0.45
2023-06-08T03:43:03.773Z,0.20
2023-06-08T03:45:30.253Z,0.52
2023-06-08T03:47:56.690Z,0.60
2023-06-08T03:50:23.462Z,0.25
2023-06-08T03:52:50.259Z,0.15
2023-06-08T03:55:18.008Z,0.30
2023-06-08T03:57:44.438Z,0.03
2023-06-08T04:00:12.685Z,0.20
2023-06-08T04:02:39.517Z,0.05
2023-06-08T04:05:07.704Z,0.52
2023-06-08T04:07:35.804Z,0.28
2023-06-08T04:10:02.742Z,0.28
2023-06-08T04:12:29.100Z,0.40
2023-06-08T04:14:55.425Z,0.10
2023-06-08T04:17:21.835Z,0.77
2023-06-08T04:19:48.225Z,0.20
2023-06-08T04:22:14.881Z,0.13
2023-06-08T04:24:41.320Z,0.40
2023-06-08T04:27:08.496Z,0.22
2023-06-08T04:29:35.080Z,0.32
2023-06-08T04:32:01.893Z,0.45
2023-06-08T04:34:28.775Z,0.13
2023-06-08T04:36:55.257Z,0.15
2023-06-08T04:39:22.034Z,0.28
2023-06-08T04:41:48.748Z,0.20
2023-06-08T04:44:19.725Z,0.20
2023-06-08T04:46:46.223Z,0.25
2023-06-08T04:49:13.987Z,0.22
2023-06-08T04:51:47.164Z,0.65
2023-06-08T04:54:14.874Z,0.25
2023-06-08T04:56:42.182Z,0.03
2023-06-08T04:59:11.975Z,0.20
2023-06-08T05:01:38.425Z,0.28
2023-06-08T05:04:08.585Z,0.20
2023-06-08T05:06:36.234Z,0.20
2023-06-08T05:09:02.752Z,0.10
2023-06-08T05:11:29.202Z,0.10
2023-06-08T05:13:55.700Z,0.20
2023-06-08T05:16:23.832Z,0.50
2023-06-08T05:18:52.317Z,0.25
2023-06-08T05:21:18.704Z,0.13
2023-06-08T05:23:45.107Z,0.00
2023-06-08T05:26:11.590Z,0.05
2023-06-08T05:28:38.202Z,0.38
2023-06-08T05:31:04.675Z,0.15
2023-06-08T05:33:31.137Z,0.38
2023-06-08T05:36:05.222Z,0.50
2023-06-08T05:38:32.185Z,0.10
2023-06-08T05:40:58.576Z,0.28
2023-06-08T05:43:25.051Z,0.30
2023-06-08T05:45:51.477Z,0.47
2023-06-08T05:48:17.945Z,0.10
2023-06-08T05:50:44.542Z,0.50
2023-06-08T05:53:11.153Z,0.03
2023-06-08T05:55:37.712Z,0.40
2023-06-08T05:58:04.108Z,0.50
2023-06-08T06:00:30.450Z,0.22
2023-06-08T06:02:56.980Z,0.22
2023-06-08T06:05:23.570Z,0.25
2023-06-08T06:07:50.000Z,0.20
2023-06-08T06:10:16.487Z,0.32
2023-06-08T06:12:43.022Z,0.60
2023-06-08T06:15:09.896Z,0.60
2023-06-08T06:17:36.515Z,0.43
2023-06-08T06:20:06.428Z,0.30
2023-06-08T06:22:33.117Z,0.63
2023-06-08T06:24:59.533Z,0.43
2023-06-08T06:27:26.124Z,0.28
2023-06-08T06:29:52.664Z,0.90
2023-06-08T06:32:19.469Z,0.55
2023-06-08T06:34:46.035Z,0.28
2023-06-08T06:37:12.382Z,0.60
2023-06-08T06:39:38.818Z,0.30
2023-06-08T06:42:06.216Z,0.52
2023-06-08T06:44:32.601Z,0.55
2023-06-08T06:46:59.022Z,0.40
2023-06-08T06:49:25.356Z,0.65
2023-06-08T06:51:51.744Z,0.93
2023-06-08T06:54:18.243Z,0.60
2023-06-08T06:56:45.872Z,0.50
2023-06-08T06:59:12.273Z,0.45
2023-06-08T07:01:38.956Z,0.45
2023-06-08T07:04:09.839Z,0.40
2023-06-08T07:06:36.579Z,0.57
2023-06-08T07:09:05.096Z,0.43
2023-06-08T07:11:31.554Z,0.40
2023-06-08T07:13:58.324Z,0.60
2023-06-08T07:16:27.701Z,0.63
2023-06-08T07:18:54.600Z,0.63
2023-06-08T07:21:22.847Z,1.05
2023-06-08T07:24:21.707Z,0.05
2023-06-08T07:26:38.026Z,0.50
2023-06-08T07:29:04.460Z,0.52
2023-06-08T07:31:31.100Z,0.43
2023-06-08T07:34:00.786Z,0.68
2023-06-08T07:36:29.556Z,0.73
2023-06-08T07:38:57.375Z,0.15
2023-06-08T07:41:25.756Z,0.80
2023-06-08T07:43:52.118Z,0.57
2023-06-08T07:46:18.531Z,0.35
2023-06-08T07:48:44.922Z,0.95
2023-06-08T07:51:11.336Z,0.60
2023-06-08T07:53:38.812Z,0.40
2023-06-08T07:56:06.467Z,0.98
2023-06-08T07:58:33.799Z,0.65
2023-06-08T08:01:01.495Z,0.77
2023-06-08T08:03:37.367Z,0.77
2023-06-08T08:06:04.092Z,0.73
2023-06-08T08:08:30.461Z,0.60
2023-06-08T08:10:57.179Z,0.45
2023-06-08T08:13:23.651Z,0.30
2023-06-08T08:15:50.175Z,0.28
2023-06-08T08:18:17.029Z,0.30
2023-06-08T08:20:43.725Z,0.70
2023-06-08T08:23:10.130Z,0.55
2023-06-08T08:25:36.628Z,0.85
2023-06-08T08:28:03.309Z,0.65
2023-06-08T08:30:29.890Z,0.75
2023-06-08T08:32:56.543Z,0.90
2023-06-08T08:35:25.909Z,0.68
2023-06-08T08:37:52.351Z,0.95
2023-06-08T08:40:19.525Z,0.47
2023-06-08T08:42:54.185Z,0.70
2023-06-08T08:45:28.825Z,0.63
2023-06-08T08:47:56.697Z,0.52
2023-06-08T08:50:23.341Z,0.73
2023-06-08T08:52:54.170Z,0.75
2023-06-08T08:58:01.748Z,0.80
2023-06-08T09:00:29.134Z,1.17
2023-06-08T09:02:56.212Z,1.23
2023-06-08T09:05:22.853Z,0.95
2023-06-08T09:07:49.394Z,0.85
2023-06-08T09:10:26.578Z,1.00
2023-06-08T09:12:55.688Z,0.63
2023-06-08T09:15:37.897Z,0.77
2023-06-08T09:18:18.522Z,1.02
2023-06-08T09:20:46.487Z,0.73
2023-06-08T09:26:57.493Z,0.70
2023-06-08T09:29:42.913Z,1.02
2023-06-08T09:34:50.598Z,0.52
2023-06-08T09:37:17.249Z,0.73
2023-06-08T09:39:45.743Z,0.90
2023-06-08T09:42:12.908Z,0.85
2023-06-08T09:44:39.753Z,0.35
2023-06-08T09:47:28.893Z,1.30
2023-06-08T09:49:56.726Z,0.90
2023-06-08T09:52:25.100Z,1.13
2023-06-08T09:54:52.599Z,1.00
2023-06-08T09:57:23.073Z,0.80
2023-06-08T10:00:15.267Z,1.10
2023-06-08T10:03:37.605Z,0.52
2023-06-08T10:06:06.990Z,0.95
2023-06-08T10:08:35.389Z,0.75
2023-06-08T10:11:02.914Z,0.90
2023-06-08T10:13:30.925Z,0.85
2023-06-08T10:15:58.902Z,0.85
2023-06-08T10:18:26.872Z,0.93
2023-06-08T10:20:53.844Z,1.25
2023-06-08T10:23:21.435Z,0.93
2023-06-08T10:25:50.519Z,0.93
2023-06-08T10:28:21.428Z,1.77
2023-06-08T10:30:48.108Z,1.23
2023-06-08T10:33:23.433Z,1.20
2023-06-08T10:36:06.578Z,1.42
2023-06-08T10:38:55.295Z,1.13
2023-06-08T10:41:44.426Z,0.75
2023-06-08T10:44:32.494Z,1.23
2023-06-08T10:47:01.284Z,1.00
2023-06-08T10:49:35.067Z,1.60
2023-06-08T10:52:03.618Z,1.00
2023-06-08T10:54:31.918Z,1.13
2023-06-08T10:57:15.584Z,1.17
2023-06-08T10:59:42.896Z,0.95
2023-06-08T11:02:09.388Z,1.60
2023-06-08T11:04:39.180Z,1.10
2023-06-08T11:07:12.347Z,0.90
2023-06-08T11:09:39.403Z,1.30
2023-06-08T11:12:07.087Z,1.20
2023-06-08T11:14:33.491Z,1.25
2023-06-08T11:16:59.978Z,0.95
2023-06-08T11:19:30.831Z,1.10
2023-06-08T11:21:57.385Z,0.90
2023-06-08T11:24:28.420Z,1.48
2023-06-08T11:27:06.315Z,1.52
2023-06-08T11:29:33.833Z,1.02
2023-06-08T11:32:11.977Z,1.13
2023-06-08T11:34:39.102Z,1.05
2023-06-08T11:37:05.637Z,1.20
2023-06-08T11:39:34.370Z,1.33
2023-06-08T11:42:01.349Z,1.02
2023-06-08T11:44:27.875Z,1.17
2023-06-08T11:46:54.508Z,1.23
2023-06-08T11:49:21.193Z,1.40
2023-06-08T11:51:50.421Z,1.00
2023-06-08T11:54:17.658Z,1.00
2023-06-08T11:56:47.539Z,1.52
2023-06-08T11:59:14.752Z,0.95
2023-06-08T12:01:58.788Z,1.15
2023-06-08T12:04:34.907Z,0.98
2023-06-08T12:07:11.118Z,1.10
2023-06-08T12:09:38.513Z,1.50
2023-06-08T12:12:12.150Z,0.82
2023-06-08T12:14:48.607Z,0.90
2023-06-08T12:17:18.566Z,1.17
2023-06-08T12:19:48.298Z,0.85
2023-06-08T12:22:14.940Z,1.20
2023-06-08T12:24:41.490Z,1.20
2023-06-08T12:27:08.297Z,1.40
2023-06-08T12:29:38.127Z,1.20
2023-06-08T12:32:05.660Z,1.08
2023-06-08T12:34:33.785Z,0.95
2023-06-08T12:37:00.356Z,1.08
2023-06-08T12:39:27.055Z,0.77
2023-06-08T12:41:53.469Z,1.10
2023-06-08T12:44:19.869Z,1.27
2023-06-08T12:46:46.302Z,1.30
2023-06-08T12:49:12.707Z,1.15
2023-06-08T12:51:39.168Z,1.17
2023-06-08T12:54:05.634Z,1.05
2023-06-08T12:56:32.071Z,1.27
2023-06-08T12:58:58.417Z,1.27
2023-06-08T13:01:24.920Z,1.38
2023-06-08T13:03:53.948Z,0.93
2023-06-08T13:06:20.508Z,0.90
2023-06-08T13:08:46.896Z,1.08
2023-06-08T13:11:13.673Z,1.00
2023-06-08T13:13:40.090Z,1.10
2023-06-08T13:16:06.822Z,1.00
2023-06-08T13:18:33.884Z,1.25
2023-06-08T13:21:00.360Z,0.60
2023-06-08T13:23:28.179Z,0.68
2023-06-08T13:25:54.633Z,0.75
2023-06-08T13:28:20.985Z,0.82
2023-06-08T13:30:47.722Z,0.82
2023-06-08T13:33:14.270Z,0.82
2023-06-08T13:35:42.232Z,0.73
2023-06-08T13:38:08.817Z,0.80
2023-06-08T13:40:36.141Z,1.13
2023-06-08T13:43:02.631Z,0.52
2023-06-08T13:45:32.271Z,0.80
2023-06-08T13:47:59.198Z,0.75
2023-06-08T13:50:27.998Z,0.52
2023-06-08T13:52:58.015Z,1.02
2023-06-08T13:55:25.626Z,0.73
2023-06-08T13:57:52.097Z,0.70
2023-06-08T14:00:18.716Z,0.30
2023-06-08T14:02:48.478Z,0.77
2023-06-08T14:05:19.517Z,0.43
2023-06-08T14:07:46.544Z,0.85
2023-06-08T14:10:13.002Z,0.68
2023-06-08T14:12:40.151Z,0.60
2023-06-08T14:15:09.936Z,0.90
2023-06-08T14:17:38.849Z,0.93
2023-06-08T14:20:06.374Z,0.70
2023-06-08T14:22:32.898Z,0.77
2023-06-08T14:24:59.312Z,0.68
2023-06-08T14:27:27.854Z,0.68
2023-06-08T14:29:54.262Z,0.98
2023-06-08T14:32:20.682Z,0.73
2023-06-08T14:34:47.387Z,0.73
2023-06-08T14:37:13.787Z,0.50
2023-06-08T14:39:40.206Z,0.93
2023-06-08T14:42:07.245Z,0.80
2023-06-08T14:44:33.857Z,1.08
2023-06-08T14:47:00.363Z,0.65
2023-06-08T14:49:28.987Z,0.55
2023-06-08T14:51:55.792Z,0.60
2023-06-08T14:54:22.707Z,0.82
2023-06-08T14:56:49.467Z,0.90
2023-06-08T14:59:15.822Z,0.70
2023-06-08T15:01:42.396Z,1.00
2023-06-08T15:04:08.948Z,0.98
2023-06-08T15:06:36.539Z,1.23
2023-06-08T15:09:03.388Z,0.93
2023-06-08T15:11:29.843Z,0.82
2023-06-08T15:13:56.257Z,1.25
2023-06-08T15:16:22.627Z,1.00
2023-06-08T15:18:49.123Z,0.95
2023-06-08T15:21:15.507Z,0.75
2023-06-08T15:23:43.150Z,0.63
2023-06-08T15:26:11.612Z,1.50
2023-06-08T15:28:38.026Z,1.05
2023-06-08T15:31:05.715Z,0.82
2023-06-08T15:33:32.181Z,1.00
2023-06-08T15:35:58.588Z,1.00
2023-06-08T15:38:25.104Z,0.95
2023-06-08T15:40:51.597Z,1.20
2023-06-08T15:43:18.249Z,1.05
2023-06-08T15:45:44.633Z,0.88
2023-06-08T15:48:11.104Z,1.10
2023-06-08T15:50:37.608Z,0.85
2023-06-08T15:53:03.979Z,0.80
2023-06-08T15:55:30.361Z,0.95
2023-06-08T15:57:56.837Z,0.70
2023-06-08T16:00:23.239Z,0.98
2023-06-08T16:02:49.821Z,1.10
2023-06-08T16:05:16.316Z,0.50
2023-06-08T16:07:42.677Z,0.63
2023-06-08T16:10:09.862Z,0.60
2023-06-08T16:12:36.665Z,0.57
2023-06-08T16:15:05.184Z,1.08
2023-06-08T16:17:31.646Z,0.60
2023-06-08T16:19:58.163Z,0.60
2023-06-08T16:22:24.626Z,0.50
2023-06-08T16:24:51.147Z,0.50
2023-06-08T16:27:17.819Z,0.90
2023-06-08T16:29:47.016Z,0.35
2023-06-08T16:32:14.556Z,0.47
2023-06-08T16:34:41.831Z,0.52
2023-06-08T16:37:08.221Z,0.30
2023-06-08T16:39:34.758Z,0.95
2023-06-08T16:42:01.131Z,0.60
2023-06-08T16:44:27.548Z,0.47
2023-06-08T16:46:55.209Z,0.75
2023-06-08T16:49:21.791Z,0.82
2023-06-08T16:51:48.160Z,0.35
2023-06-08T16:54:14.571Z,0.20
2023-06-08T16:56:41.199Z,0.52
2023-06-08T16:59:07.545Z,0.15
2023-06-08T17:01:34.034Z,0.10
2023-06-08T17:04:00.896Z,0.40
2023-06-08T17:06:27.254Z,0.47
2023-06-08T17:08:53.637Z,0.15
2023-06-08T17:11:21.521Z,0.40
2023-06-08T17:13:47.864Z,0.10
2023-06-08T17:16:14.300Z,0.20
2023-06-08T17:18:40.738Z,0.25
2023-06-08T17:21:08.349Z,0.00
2023-06-08T17:23:35.484Z,0.20
2023-06-08T17:26:01.977Z,0.15
2023-06-08T17:28:28.533Z,0.50
2023-06-08T17:30:55.085Z,0.32
2023-06-08T17:33:21.965Z,0.20
2023-06-08T17:35:48.378Z,0.10
2023-06-08T17:38:14.865Z,0.00
2023-06-08T17:40:41.304Z,0.00
2023-06-08T17:43:07.677Z,0.13
2023-06-08T17:45:34.074Z,0.10
2023-06-08T17:48:00.708Z,0.00
2023-06-08T17:50:28.201Z,0.22
2023-06-08T17:53:02.074Z,0.68
2023-06-08T17:55:28.902Z,0.08
2023-06-08T17:57:57.365Z,0.10
2023-06-08T18:00:24.390Z,0.00
2023-06-08T18:02:51.314Z,0.25
2023-06-08T18:05:18.632Z,0.03
2023-06-08T18:07:45.025Z,0.22
2023-06-08T18:10:11.641Z,0.20
2023-06-08T18:12:38.047Z,0.00
2023-06-08T18:15:06.239Z,0.32
2023-06-08T18:17:33.611Z,0.17
2023-06-08T18:20:02.186Z,0.30
2023-06-08T18:22:30.855Z,0.00
2023-06-08T18:24:57.440Z,0.30
2023-06-08T18:27:24.202Z,0.32
2023-06-08T18:29:50.624Z,0.08
2023-06-08T18:32:17.115Z,0.25
2023-06-08T18:34:43.539Z,0.30
2023-06-08T18:37:09.949Z,0.25
2023-06-08T18:39:48.221Z,0.43
2023-06-08T18:42:23.135Z,0.22
2023-06-08T18:44:49.904Z,0.57
2023-06-08T18:47:16.590Z,0.32
2023-06-08T18:49:44.953Z,0.00
2023-06-08T18:52:11.848Z,0.22
2023-06-08T18:54:38.932Z,0.13
2023-06-08T18:57:05.792Z,0.15
2023-06-08T18:59:32.219Z,0.45
2023-06-08T19:01:58.564Z,0.80
2023-06-08T19:04:24.981Z,0.10
2023-06-08T19:06:51.686Z,0.35
2023-06-08T19:09:20.260Z,0.47
2023-06-08T19:11:47.647Z,0.20
2023-06-08T19:14:15.180Z,0.10
2023-06-08T19:16:41.744Z,0.20
2023-06-08T19:19:09.237Z,0.20
2023-06-08T19:21:36.831Z,0.22
2023-06-08T19:24:07.401Z,0.17
2023-06-08T19:26:34.786Z,1.08
2023-06-08T19:29:01.708Z,0.32
2023-06-08T19:31:29.076Z,0.25
2023-06-08T19:33:56.488Z,0.22
2023-06-08T19:36:24.024Z,0.57
2023-06-08T19:38:52.262Z,0.00
2023-06-08T19:41:18.871Z,0.00
2023-06-08T19:43:45.992Z,0.20
2023-06-08T19:46:12.504Z,0.32
2023-06-08T19:48:39.414Z,0.57
2023-06-08T19:51:06.003Z,0.20
2023-06-08T19:53:32.570Z,0.20
2023-06-08T19:55:59.080Z,0.30
2023-06-08T19:58:25.718Z,0.00
2023-06-08T20:00:52.435Z,0.00
2023-06-08T20:03:19.231Z,0.43
2023-06-08T20:05:45.639Z,0.47
2023-06-08T20:08:12.129Z,0.10
2023-06-08T20:10:38.543Z,0.30
2023-06-08T20:13:04.967Z,0.00
2023-06-08T20:15:34.713Z,0.03
2023-06-08T20:18:02.311Z,0.00
2023-06-08T20:20:28.873Z,0.32
2023-06-08T20:22:55.335Z,0.00
2023-06-08T20:25:23.244Z,0.00
2023-06-08T20:27:49.907Z,0.17
2023-06-08T20:30:16.874Z,0.03
2023-06-08T20:32:43.514Z,0.35
2023-06-08T20:35:10.245Z,0.30
2023-06-08T20:37:36.910Z,0.00
2023-06-08T20:40:04.018Z,0.13
2023-06-08T20:42:30.514Z,0.15
2023-06-08T20:44:57.394Z,0.00
2023-06-08T20:47:23.824Z,0.05
2023-06-08T20:49:50.456Z,0.40
2023-06-08T20:52:16.929Z,0.20
2023-06-08T20:54:43.339Z,0.20
2023-06-08T20:57:09.842Z,0.10
2023-06-08T20:59:37.228Z,0.15
2023-06-08T21:02:03.724Z,0.00
2023-06-08T21:04:33.024Z,0.25
2023-06-08T21:07:00.746Z,0.10
2023-06-08T21:09:27.415Z,0.15
2023-06-08T21:11:54.800Z,0.43
2023-06-08T21:14:24.704Z,0.05
2023-06-08T21:16:52.448Z,0.28
2023-06-08T21:19:18.846Z,0.55
2023-06-08T21:21:45.428Z,0.40
2023-06-08T21:24:11.856Z,0.00
2023-06-08T21:26:38.321Z,0.10
2023-06-08T21:29:07.821Z,0.50
2023-06-08T21:31:34.275Z,0.25
2023-06-08T21:34:00.691Z,0.65
2023-06-08T21:36:27.018Z,0.10
2023-06-08T21:38:53.957Z,0.45
2023-06-08T21:41:20.427Z,0.20
2023-06-08T21:43:46.846Z,0.10
2023-06-08T21:46:13.229Z,0.00
2023-06-08T21:48:39.818Z,0.30
2023-06-08T21:51:06.947Z,0.28
2023-06-08T21:53:33.352Z,0.15
2023-06-08T21:56:00.149Z,0.22
2023-06-08T21:58:26.563Z,0.13
2023-06-08T22:00:53.488Z,0.00
2023-06-08T22:03:20.139Z,0.30
2023-06-08T22:05:46.559Z,0.20
2023-06-08T22:08:12.988Z,0.22
2023-06-08T22:10:39.812Z,0.20
2023-06-08T22:13:07.348Z,0.40
2023-06-08T22:15:33.838Z,0.47
2023-06-08T22:18:02.186Z,0.30
2023-06-08T22:20:34.700Z,0.08
2023-06-08T22:23:01.717Z,0.08
2023-06-08T22:25:28.169Z,0.20
2023-06-08T22:27:55.231Z,0.17
2023-06-08T22:30:21.620Z,0.10
2023-06-08T22:32:48.104Z,0.10
2023-06-08T22:35:14.671Z,0.70
2023-06-08T22:37:41.469Z,0.08
2023-06-08T22:40:09.453Z,0.38
2023-06-08T22:42:35.903Z,0.30
2023-06-08T22:45:02.621Z,0.10
2023-06-08T22:47:31.260Z,0.20
2023-06-08T22:49:59.520Z,0.15
2023-06-08T22:52:29.294Z,0.22
2023-06-08T22:54:56.074Z,0.43
2023-06-08T22:57:22.658Z,0.32
2023-06-08T22:59:49.153Z,0.20
2023-06-08T23:02:15.941Z,0.17
2023-06-08T23:04:47.519Z,0.10
2023-06-08T23:07:17.843Z,0.00
2023-06-08T23:09:49.485Z,0.10
2023-06-08T23:12:17.216Z,0.50
2023-06-08T23:14:49.428Z,0.10
2023-06-08T23:17:19.433Z,0.32
2023-06-08T23:19:49.474Z,0.00
2023-06-08T23:22:23.247Z,0.00
2023-06-08T23:24:51.539Z,0.32
2023-06-08T23:27:18.170Z,0.10
2023-06-08T23:29:48.590Z,0.20
2023-06-08T23:32:19.424Z,0.68
2023-06-08T23:34:48.073Z,0.00
2023-06-08T23:37:17.006Z,0.00
2023-06-08T23:39:44.836Z,0.10
2023-06-08T23:42:11.449Z,0.15
2023-06-08T23:44:38.575Z,0.60
2023-06-08T23:47:08.229Z,0.20
2023-06-08T23:49:34.921Z,0.20
2023-06-08T23:52:01.370Z,0.30
2023-06-08T23:54:27.854Z,0.50
2023-06-08T23:56:54.231Z,0.20
2023-06-08T23:59:20.658Z,0.93
